Архив погоды в Облучье

Метеограмма Облучье
Пятница, 25 Мая
Время местн. Темп Ветер Видим Явления Облачность нижн/средн/верх Атм. давл. Влжн Точка росы ВНГО R Сост. почвы Tg s
Напр Скр Прв ур.ст ур.м изм
16:00 +16.5° С 2 - более 50 км - облачно 732 755 0 39% +2.6° 1 км - - - -
13:00 +15.1° С,С-З 1 - более 50 км - облачно 732 755 0 42% +2.4° 1.5 км - - - -
10:00 +10.8° Ю 1 - более 50 км небо без изменений {туман} облачно 732 755 +2 61% +3.7° 1.5 км - - - -
07:00 +2.7° С,С-В 2 - 20 км туман переменная облачность 729 754 +1.4 96% +2.2° 1 км 0 Влажная (без луж) - -
04:00 +3.3° штиль 0 19 20 км - облачно 728 752 +1 96% +2.7° более 2.5 км - - - -
01:00 +5.5° С-В 1 - 20 км - облачно 727 751 +0.7 93% +4.4° более 2.5 км - - - -
Четверг, 24 Мая
Время местн. Темп Ветер Видим Явления Облачность нижн/средн/верх Атм. давл. Влжн Точка росы ВНГО R Сост. почвы Tg s
Напр Скр Прв ур.ст ур.м изм
22:00 +6.4° С 2 - 20 км небо без изменений {ливневые осадки} облачно 726 750 +0.5 87% +4.4° - - - - -
19:00 +7.1° С 2 - 20 км ливневый дождь облачно 726 750 +0.2 84% +4.5° 1 км 0.9 - - -
16:00 +9.9° С,С-З 2 - 20 км - облачно 726 749 0 57% +1.7° более 2.5 км - - - -
13:00 +11.8° С-З 2 - более 50 км - облачно 725 749 0 52% +2.2° более 2.5 км - - - -
10:00 +7.8° Ю,Ю-З 1 - 50 км - облачно 725 749 +0.1 71% +2.9° - - - - -
07:00 -0.6° С 2 - 20 км - облачно 725 750 -0.4 90% -2.1° более 2.5 км 0 Замерзшая - -
04:00 -0.7° С 2 - 20 км - переменная облачность 726 750 -0.5 93% -1.7° 1 км - - - -
01:00 +0.7° С 3 - 50 км - переменная облачность 726 750 -0.3 93% -0.3° более 2.5 км - - - -
Среда, 23 Мая
Время местн. Темп Ветер Видим Явления Облачность нижн/средн/верх Атм. давл. Влжн Точка росы ВНГО R Сост. почвы Tg s
Напр Скр Прв ур.ст ур.м изм
22:00 +3.6° С,С-В 1 - более 50 км - облачно 726 750 +0.8 90% +2.1° более 2.5 км - - - -
19:00 +10.8° С 2 - более 50 км - облачно 725 749 -0.8 50% +0.7° более 2.5 км 2 - - -
16:00 +9.3° С-З 2 - более 50 км - облачно 726 750 -0.5 59% +1.6° 1.5 км - - - -
13:00 +5.9° С 1 - 20 км - облачно 727 751 -0.7 78% +2.4° 1 км - - - -
10:00 +3.2° С 2 - 20 км небо без изменений {ливневые осадки} облачно 727 751 +0.7 91% +1.9° 1 км - - - -
07:00 +0.4° Ю,Ю-В 1 - 1 км умеренный или сильный ливневый снег облачно 728 753 +0.7 96% -0.2° 1 км 8 Влажная (без луж) -
04:00 +5° З 2 - 10 км слабый ливневый дождь облачно 727 751 +0.3 84% +2.6° 1 км - - - -
01:00 +12.8° С-З 3 - 20 км - облачно 727 750 +1.5 59% +5.1° 1 км - - - -
Вторник, 22 Мая
Время местн. Темп Ветер Видим Явления Облачность нижн/средн/верх Атм. давл. Влжн Точка росы ВНГО R Сост. почвы Tg s
Напр Скр Прв ур.ст ур.м изм
22:00 +20.2° Ю,Ю-З 2 11 20 км - облачно 726 748 +0.5 35% +4.2° 1 км - - - -
19:00 +25.1° Ю,Ю-В 4 - 20 км - облачно 725 747 -1.6 27% +4.8° 1 км 0 - - -
16:00 +27.5° Ю 6 16 более 50 км - облачно 727 749 -2.4 16% -0.9° более 2.5 км - - - -
13:00 +27.6° Ю 6 11 более 50 км - переменная облачность 729 751 -3 15% -1.7° более 2.5 км - - - -